Time,TemperatureF,DewpointF,PressureIn,WindDirection,WindDirectionDegrees,WindSpeedMPH,WindSpeedGustMPH,Humidity,HourlyPrecipIn,Conditions,Clouds,dailyrainin,SoftwareType,DateUTC
2013-07-25 00:04:00,82.2,76.5,29.91,SE,135,3.8,-999.0,83,-99.99,,,0.00,Acu-Link.com,2013-07-25 04:04:00,
2013-07-25 00:19:00,82.4,76.7,29.91,ESE,112,6.3,-999.0,83,-99.99,,,0.00,Acu-Link.com,2013-07-25 04:19:00,
2013-07-25 00:34:00,82.4,76.7,29.90,ESE,112,3.1,-999.0,83,-99.99,,,0.00,Acu-Link.com,2013-07-25 04:34:00,
2013-07-25 00:49:00,82.4,76.7,29.90,SSE,157,3.1,-999.0,83,-99.99,,,0.00,Acu-Link.com,2013-07-25 04:49:00,
2013-07-25 01:04:00,82.4,76.7,29.90,SE,135,4.3,-999.0,83,-99.99,,,0.00,Acu-Link.com,2013-07-25 05:04:00,
2013-07-25 01:20:00,82.6,76.9,29.90,ESE,112,3.8,-999.0,83,-99.99,,,0.00,Acu-Link.com,2013-07-25 05:20:00,
2013-07-25 01:35:00,81.9,77.6,29.90,SSE,157,2.2,-999.0,87,-99.99,,,0.00,Acu-Link.com,2013-07-25 05:35:00,
2013-07-25 01:50:00,81.5,77.6,29.90,SSW,202,2.7,-999.0,88,-99.99,,,0.00,Acu-Link.com,2013-07-25 05:50:00,
2013-07-25 02:05:00,81.3,77.4,29.90,ESE,112,3.8,-999.0,88,-99.99,,,0.00,Acu-Link.com,2013-07-25 06:05:00,
2013-07-25 02:20:00,81.5,77.2,29.90,ESE,112,4.3,-999.0,87,-99.99,,,0.00,Acu-Link.com,2013-07-25 06:20:00,
2013-07-25 02:36:00,81.5,77.6,29.90,SE,135,2.7,-999.0,88,-99.99,,,0.00,Acu-Link.com,2013-07-25 06:36:00,
2013-07-25 02:51:00,81.3,77.4,29.89,SSE,157,2.2,-999.0,88,-99.99,,,0.00,Acu-Link.com,2013-07-25 06:51:00,
2013-07-25 03:06:00,81.0,77.1,29.89,South,180,1.6,-999.0,88,-99.99,,,0.00,Acu-Link.com,2013-07-25 07:06:00,
2013-07-25 03:21:00,80.8,77.2,29.90,ENE,67,1.6,-999.0,89,-99.99,,,0.00,Acu-Link.com,2013-07-25 07:21:00,
2013-07-25 03:37:00,81.0,77.1,29.89,East,90,1.6,-999.0,88,-99.99,,,0.00,Acu-Link.com,2013-07-25 07:37:00,
2013-07-25 03:52:00,81.0,77.1,29.90,SSW,202,2.7,-999.0,88,-99.99,,,0.00,Acu-Link.com,2013-07-25 07:52:00,
2013-07-25 04:07:00,81.0,77.1,29.90,SSE,157,1.6,-999.0,88,-99.99,,,0.00,Acu-Link.com,2013-07-25 08:07:00,
2013-07-25 04:23:00,80.8,76.9,29.90,ESE,112,2.7,-999.0,88,-99.99,,,0.00,Acu-Link.com,2013-07-25 08:23:00,
2013-07-25 04:38:00,80.6,76.7,29.90,ESE,112,2.2,-999.0,88,-99.99,,,0.00,Acu-Link.com,2013-07-25 08:38:00,
2013-07-25 04:53:00,80.6,76.7,29.90,ESE,112,1.6,-999.0,88,-99.99,,,0.00,Acu-Link.com,2013-07-25 08:53:00,
2013-07-25 05:08:00,80.2,76.4,29.90,SE,135,2.2,-999.0,88,-99.99,,,0.00,Acu-Link.com,2013-07-25 09:08:00,
2013-07-25 05:24:00,80.1,76.5,29.90,ESE,112,1.6,-999.0,89,-99.99,,,0.00,Acu-Link.com,2013-07-25 09:24:00,
2013-07-25 05:39:00,80.1,76.5,29.91,SW,225,2.7,-999.0,89,-99.99,,,0.00,Acu-Link.com,2013-07-25 09:39:00,
2013-07-25 05:54:00,79.9,76.7,29.92,South,180,2.2,-999.0,90,-99.99,,,0.00,Acu-Link.com,2013-07-25 09:54:00,
2013-07-25 06:09:00,79.9,76.7,29.92,ESE,112,1.6,-999.0,90,-99.99,,,0.00,Acu-Link.com,2013-07-25 10:09:00,
2013-07-25 06:24:00,80.4,76.9,29.92,ESE,112,1.6,-999.0,89,-99.99,,,0.00,Acu-Link.com,2013-07-25 10:24:00,
2013-07-25 06:40:00,81.3,77.1,29.93,SSE,157,1.6,-999.0,87,-99.99,,,0.00,Acu-Link.com,2013-07-25 10:40:00,
2013-07-25 06:55:00,81.3,77.1,29.93,South,180,3.1,-999.0,87,-99.99,,,0.00,Acu-Link.com,2013-07-25 10:55:00,
2013-07-25 07:10:00,83.8,77.7,29.94,ESE,112,2.7,-999.0,82,-99.99,,,0.00,Acu-Link.com,2013-07-25 11:10:00,
2013-07-25 07:25:00,87.1,77.8,29.93,East,90,3.1,-999.0,74,-99.99,,,0.00,Acu-Link.com,2013-07-25 11:25:00,
2013-07-25 07:41:00,86.4,77.1,29.94,ENE,67,4.7,-999.0,74,-99.99,,,0.00,Acu-Link.com,2013-07-25 11:41:00,
2013-07-25 07:56:00,86.9,76.8,29.94,ESE,112,6.3,-999.0,72,-99.99,,,0.00,Acu-Link.com,2013-07-25 11:56:00,
2013-07-25 08:11:00,84.9,76.5,29.94,ESE,112,8.3,-999.0,76,-99.99,,,0.00,Acu-Link.com,2013-07-25 12:11:00,
2013-07-25 08:26:00,85.5,77.0,29.94,ESE,112,6.7,-999.0,76,-99.99,,,0.00,Acu-Link.com,2013-07-25 12:26:00,
2013-07-25 08:41:00,86.0,76.3,29.94,ESE,112,5.1,-999.0,73,-99.99,,,0.00,Acu-Link.com,2013-07-25 12:41:00,
2013-07-25 08:57:00,86.2,76.1,29.94,ESE,112,6.7,-999.0,72,-99.99,,,0.00,Acu-Link.com,2013-07-25 12:57:00,
2013-07-25 09:12:00,85.1,76.7,29.94,SE,135,7.8,-999.0,76,-99.99,,,0.00,Acu-Link.com,2013-07-25 13:12:00,
2013-07-25 09:27:00,85.1,76.7,29.95,NNE,22,5.1,-999.0,76,-99.99,,,0.00,Acu-Link.com,2013-07-25 13:27:00,
2013-07-25 09:42:00,86.7,77.0,29.94,East,90,9.8,-999.0,73,-99.99,,,0.00,Acu-Link.com,2013-07-25 13:42:00,
2013-07-25 09:57:00,85.5,76.2,29.94,ESE,112,9.4,-999.0,74,-99.99,,,0.00,Acu-Link.com,2013-07-25 13:57:00,
2013-07-25 10:12:00,84.0,77.5,29.94,East,90,9.4,-999.0,81,-99.99,,,0.00,Acu-Link.com,2013-07-25 14:12:00,
2013-07-25 10:28:00,86.7,77.8,29.94,ESE,112,7.8,-999.0,75,-99.99,,,0.00,Acu-Link.com,2013-07-25 14:28:00,
2013-07-25 10:43:00,87.4,76.9,29.94,East,90,8.9,-999.0,71,-99.99,,,0.00,Acu-Link.com,2013-07-25 14:43:00,
2013-07-25 10:58:00,88.3,77.3,29.94,ENE,67,4.3,-999.0,70,-99.99,,,0.00,Acu-Link.com,2013-07-25 14:58:00,
2013-07-25 11:13:00,88.5,76.1,29.93,ENE,67,13.0,-999.0,67,-99.99,,,0.00,Acu-Link.com,2013-07-25 15:13:00,
2013-07-25 12:41:00,89.2,76.8,29.92,SSE,157,9.4,-999.0,67,-99.99,,,0.00,Acu-Link.com,2013-07-25 16:41:00,
2013-07-25 12:56:00,88.2,77.5,29.92,ESE,112,7.4,-999.0,71,-99.99,,,0.00,Acu-Link.com,2013-07-25 16:56:00,
2013-07-25 13:11:00,89.1,78.0,29.92,ENE,67,14.1,-999.0,70,-99.99,,,0.00,Acu-Link.com,2013-07-25 17:11:00,
2013-07-25 13:26:00,89.6,77.6,29.91,SSE,157,11.4,-999.0,68,-99.99,,,0.00,Acu-Link.com,2013-07-25 17:26:00,
2013-07-25 13:41:00,88.5,77.5,29.91,East,90,10.3,-999.0,70,-99.99,,,0.00,Acu-Link.com,2013-07-25 17:41:00,
2013-07-25 13:57:00,89.1,77.5,29.91,SE,135,12.5,-999.0,69,-99.99,,,0.00,Acu-Link.com,2013-07-25 17:57:00,
2013-07-25 14:12:00,88.9,77.8,29.90,East,90,13.4,-999.0,70,-99.99,,,0.00,Acu-Link.com,2013-07-25 18:12:00,
2013-07-25 14:27:00,88.7,77.6,29.90,East,90,11.4,-999.0,70,-99.99,,,0.00,Acu-Link.com,2013-07-25 18:27:00,
2013-07-25 14:42:00,89.4,77.4,29.89,East,90,15.0,-999.0,68,-99.99,,,0.00,Acu-Link.com,2013-07-25 18:42:00,
2013-07-25 14:58:00,87.3,77.5,29.89,ESE,112,9.8,-999.0,73,-99.99,,,0.00,Acu-Link.com,2013-07-25 18:58:00,
2013-07-25 15:13:00,88.2,78.4,29.89,ESE,112,11.9,-999.0,73,-99.99,,,0.00,Acu-Link.com,2013-07-25 19:13:00,
2013-07-25 15:28:00,86.4,77.5,29.89,ENE,67,10.3,-999.0,75,-99.99,,,0.00,Acu-Link.com,2013-07-25 19:28:00,
2013-07-25 15:43:00,85.6,77.6,29.89,SE,135,6.3,-999.0,77,-99.99,,,0.00,Acu-Link.com,2013-07-25 19:43:00,
2013-07-25 15:58:00,85.3,77.6,29.89,ENE,67,5.8,-999.0,78,-99.99,,,0.00,Acu-Link.com,2013-07-25 19:58:00,
2013-07-25 16:14:00,85.6,77.6,29.89,NE,45,8.3,-999.0,77,-99.99,,,0.00,Acu-Link.com,2013-07-25 20:14:00,
2013-07-25 16:29:00,85.6,78.0,29.89,ESE,112,6.7,-999.0,78,-99.99,,,0.00,Acu-Link.com,2013-07-25 20:29:00,
2013-07-25 16:44:00,86.0,78.3,29.89,East,90,10.3,-999.0,78,-99.99,,,0.00,Acu-Link.com,2013-07-25 20:44:00,
2013-07-25 16:59:00,86.4,77.9,29.89,ESE,112,4.7,-999.0,76,-99.99,,,0.00,Acu-Link.com,2013-07-25 20:59:00,
2013-07-25 17:14:00,86.7,78.2,29.90,ENE,67,11.4,-999.0,76,-99.99,,,0.00,Acu-Link.com,2013-07-25 21:14:00,
2013-07-25 17:30:00,86.9,78.0,29.90,East,90,11.9,-999.0,75,-99.99,,,0.00,Acu-Link.com,2013-07-25 21:30:00,
2013-07-25 17:45:00,87.3,77.5,29.90,ESE,112,4.7,-999.0,73,-99.99,,,0.00,Acu-Link.com,2013-07-25 21:45:00,
2013-07-25 18:00:00,86.5,77.6,29.91,East,90,6.3,-999.0,75,-99.99,,,0.00,Acu-Link.com,2013-07-25 22:00:00,
2013-07-25 18:15:00,86.2,77.3,29.91,SE,135,8.9,-999.0,75,-99.99,,,0.00,Acu-Link.com,2013-07-25 22:15:00,
2013-07-25 18:30:00,85.5,76.6,29.92,ENE,67,5.1,-999.0,75,-99.99,,,0.00,Acu-Link.com,2013-07-25 22:30:00,
2013-07-25 18:46:00,84.9,76.5,29.92,ESE,112,7.4,-999.0,76,-99.99,,,0.00,Acu-Link.com,2013-07-25 22:46:00,
2013-07-25 19:01:00,84.9,77.3,29.92,East,90,5.1,-999.0,78,-99.99,,,0.00,Acu-Link.com,2013-07-25 23:01:00,
2013-07-25 19:16:00,84.2,77.0,29.93,ESE,112,3.1,-999.0,79,-99.99,,,0.00,Acu-Link.com,2013-07-25 23:16:00,
2013-07-25 19:31:00,84.0,76.8,29.93,East,90,3.8,-999.0,79,-99.99,,,0.00,Acu-Link.com,2013-07-25 23:31:00,
2013-07-25 19:46:00,83.8,77.0,29.94,ESE,112,6.7,-999.0,80,-99.99,,,0.00,Acu-Link.com,2013-07-25 23:46:00,
2013-07-25 20:01:00,83.7,76.8,29.95,ENE,67,5.1,-999.0,80,-99.99,,,0.00,Acu-Link.com,2013-07-26 00:01:00,
2013-07-25 20:17:00,83.5,77.0,29.95,NE,45,5.1,-999.0,81,-99.99,,,0.00,Acu-Link.com,2013-07-26 00:17:00,
2013-07-25 20:32:00,83.3,77.2,29.96,ENE,67,3.1,-999.0,82,-99.99,,,0.00,Acu-Link.com,2013-07-26 00:32:00,
2013-07-25 20:47:00,83.1,77.0,29.96,ESE,112,6.7,-999.0,82,-99.99,,,0.00,Acu-Link.com,2013-07-26 00:47:00,
2013-07-25 21:02:00,83.1,77.4,29.96,ESE,112,3.1,-999.0,83,-99.99,,,0.00,Acu-Link.com,2013-07-26 01:02:00,
2013-07-25 21:17:00,82.9,77.6,29.97,ESE,112,5.8,-999.0,84,-99.99,,,0.00,Acu-Link.com,2013-07-26 01:17:00,
2013-07-25 21:32:00,82.8,77.4,29.97,East,90,3.1,-999.0,84,-99.99,,,0.00,Acu-Link.com,2013-07-26 01:32:00,
2013-07-25 21:47:00,82.6,76.9,29.98,ESE,112,3.1,-999.0,83,-99.99,,,0.00,Acu-Link.com,2013-07-26 01:47:00,
2013-07-25 22:02:00,82.6,76.9,29.98,SE,135,3.1,-999.0,83,-99.99,,,0.00,Acu-Link.com,2013-07-26 02:02:00,
2013-07-25 22:18:00,82.6,76.9,29.99,ESE,112,3.8,-999.0,83,-99.99,,,0.00,Acu-Link.com,2013-07-26 02:18:00,
2013-07-25 22:33:00,82.6,76.9,29.99,WNW,292,0.0,-999.0,83,-99.99,,,0.00,Acu-Link.com,2013-07-26 02:33:00,
2013-07-25 22:48:00,82.4,76.7,29.99,SSE,157,3.1,-999.0,83,-99.99,,,0.00,Acu-Link.com,2013-07-26 02:48:00,
2013-07-25 23:03:00,82.0,76.3,30.00,NNW,337,2.2,-999.0,83,-99.99,,,0.00,Acu-Link.com,2013-07-26 03:03:00,
2013-07-25 23:18:00,81.9,76.2,30.00,ESE,112,2.2,-999.0,83,-99.99,,,0.00,Acu-Link.com,2013-07-26 03:18:00,
2013-07-25 23:33:00,81.9,76.2,30.00,SSW,202,1.1,-999.0,83,-99.99,,,0.00,Acu-Link.com,2013-07-26 03:33:00,
2013-07-25 23:48:00,82.0,76.0,30.00,SSW,202,1.6,-999.0,82,-99.99,,,0.00,Acu-Link.com,2013-07-26 03:48:00,